SHU5610 UHWW-UHPP
Flight info
| Callsign | SHU5610 |
|---|---|
| Flight time | N/A |
| Altitude | 37000 |
| Route | DOLMA2F DOLMA B356 TD T575 AKOLA P175 NALAM T575 DITOR P175 NAMUL P176 UB T577 SAMIK SAMIK5N |
| Aircraft | A319/M-SDE3FGHIRWY/LB1 |
Departure
| Time | 2026-04-30 12:15 |
|---|---|
| Airport | Vladivostok International Airport (UHWW) |
Arrival
| Time | N/A |
|---|---|
| Airport | Yelizovo Airport (UHPP) |
| Time | Latitude | Longitude | Altitude | Speed | Heading |
|---|---|---|---|---|---|
| 2026-04-30 11:20 | 43.39893 | 132.16490 | 70 ft | 0 kts | 152° |
| 2026-04-30 11:58 | 43.39894 | 132.16490 | 69 ft | 0 kts | 152° |
| 2026-04-30 12:03 | 43.39893 | 132.16490 | 69 ft | 0 kts | 152° |
| 2026-04-30 12:04 | 43.39891 | 132.16492 | 69 ft | 1 kts | 152° |
| 2026-04-30 12:04 | 43.39888 | 132.16495 | 69 ft | 1 kts | 152° |
| 2026-04-30 12:04 | 43.39873 | 132.16505 | 69 ft | 4 kts | 153° |
| 2026-04-30 12:04 | 43.39848 | 132.16510 | 69 ft | 5 kts | 188° |
| 2026-04-30 12:05 | 43.39825 | 132.16483 | 69 ft | 0 kts | 238° |
| 2026-04-30 12:05 | 43.39823 | 132.16480 | 69 ft | 1 kts | 238° |
| 2026-04-30 12:05 | 43.39819 | 132.16470 | 69 ft | 2 kts | 239° |
| 2026-04-30 12:05 | 43.39811 | 132.16452 | 69 ft | 3 kts | 238° |
| 2026-04-30 12:06 | 43.39799 | 132.16423 | 69 ft | 5 kts | 243° |
| 2026-04-30 12:06 | 43.39778 | 132.16370 | 69 ft | 7 kts | 241° |
| 2026-04-30 12:06 | 43.39753 | 132.16308 | 69 ft | 8 kts | 241° |
| 2026-04-30 12:06 | 43.39745 | 132.16237 | 69 ft | 8 kts | 286° |
| 2026-04-30 12:07 | 43.39786 | 132.16188 | 69 ft | 8 kts | 332° |
| 2026-04-30 12:07 | 43.39839 | 132.16151 | 69 ft | 9 kts | 332° |
| 2026-04-30 12:07 | 43.39882 | 132.16119 | 69 ft | 3 kts | 339° |
| 2026-04-30 12:07 | 43.39907 | 132.16123 | 69 ft | 5 kts | 22° |
| 2026-04-30 12:08 | 43.39938 | 132.16173 | 69 ft | 8 kts | 60° |
| 2026-04-30 12:08 | 43.39964 | 132.16239 | 69 ft | 8 kts | 62° |
| 2026-04-30 12:08 | 43.39991 | 132.16308 | 69 ft | 8 kts | 61° |
| 2026-04-30 12:08 | 43.40020 | 132.16378 | 69 ft | 9 kts | 60° |
| 2026-04-30 12:09 | 43.40050 | 132.16451 | 69 ft | 9 kts | 61° |
| 2026-04-30 12:09 | 43.40081 | 132.16528 | 69 ft | 9 kts | 61° |
| 2026-04-30 12:09 | 43.40113 | 132.16608 | 69 ft | 10 kts | 61° |
| 2026-04-30 12:09 | 43.40146 | 132.16692 | 69 ft | 10 kts | 61° |
| 2026-04-30 12:10 | 43.40181 | 132.16778 | 69 ft | 11 kts | 60° |
| 2026-04-30 12:10 | 43.40218 | 132.16869 | 69 ft | 11 kts | 61° |
| 2026-04-30 12:10 | 43.40238 | 132.16918 | 69 ft | 2 kts | 60° |
| 2026-04-30 12:10 | 43.40247 | 132.16936 | 69 ft | 3 kts | 51° |
| 2026-04-30 12:11 | 43.40270 | 132.16958 | 69 ft | 5 kts | 20° |
| 2026-04-30 12:11 | 43.40311 | 132.16944 | 69 ft | 8 kts | 332° |
| 2026-04-30 12:11 | 43.40346 | 132.16919 | 69 ft | 0 kts | 332° |
| 2026-04-30 12:11 | 43.40348 | 132.16917 | 69 ft | 1 kts | 332° |
| 2026-04-30 12:12 | 43.40353 | 132.16914 | 69 ft | 0 kts | 333° |
| 2026-04-30 12:12 | 43.40360 | 132.16909 | 69 ft | 2 kts | 333° |
| 2026-04-30 12:12 | 43.40376 | 132.16897 | 68 ft | 3 kts | 332° |
| 2026-04-30 12:13 | 43.40409 | 132.16871 | 68 ft | 7 kts | 326° |
| 2026-04-30 12:13 | 43.40430 | 132.16809 | 68 ft | 8 kts | 265° |
| 2026-04-30 12:13 | 43.40410 | 132.16742 | 68 ft | 8 kts | 241° |
| 2026-04-30 12:13 | 43.40405 | 132.16730 | 68 ft | 1 kts | 242° |
| 2026-04-30 12:14 | 43.40404 | 132.16728 | 68 ft | 0 kts | 242° |
| 2026-04-30 12:14 | 43.40404 | 132.16726 | 68 ft | 1 kts | 242° |
| 2026-04-30 12:14 | 43.40319 | 132.16516 | 68 ft | 63 kts | 241° |
| 2026-04-30 12:14 | 43.39989 | 132.15701 | 67 ft | 130 kts | 240° |
| 2026-04-30 12:15 | 43.39467 | 132.14412 | 162 ft | 170 kts | 240° |
| 2026-04-30 12:15 | 43.38890 | 132.12985 | 776 ft | 172 kts | 240° |
| 2026-04-30 12:15 | 43.38306 | 132.11533 | 1434 ft | 175 kts | 241° |
| 2026-04-30 12:15 | 43.37691 | 132.10012 | 1891 ft | 192 kts | 240° |
| 2026-04-30 12:16 | 43.37002 | 132.08312 | 2234 ft | 215 kts | 240° |
| 2026-04-30 12:16 | 43.36244 | 132.06445 | 2680 ft | 233 kts | 240° |
| 2026-04-30 12:16 | 43.35448 | 132.04487 | 3487 ft | 236 kts | 240° |
| 2026-04-30 12:16 | 43.34621 | 132.02507 | 4288 ft | 241 kts | 236° |
| 2026-04-30 12:17 | 43.31579 | 132.01018 | 5664 ft | 255 kts | 162° |
| 2026-04-30 12:17 | 43.30135 | 132.02414 | 6394 ft | 261 kts | 126° |
| 2026-04-30 12:17 | 43.29542 | 132.04748 | 7110 ft | 265 kts | 91° |
| 2026-04-30 12:18 | 43.29843 | 132.07265 | 7734 ft | 276 kts | 74° |
| 2026-04-30 12:18 | 43.30488 | 132.09828 | 8239 ft | 289 kts | 70° |
| 2026-04-30 12:18 | 43.31191 | 132.12446 | 8946 ft | 295 kts | 70° |
| 2026-04-30 12:18 | 43.31897 | 132.15067 | 9656 ft | 299 kts | 70° |
| 2026-04-30 12:19 | 43.32532 | 132.17812 | 10258 ft | 307 kts | 76° |
| 2026-04-30 12:19 | 43.32996 | 132.20787 | 10403 ft | 330 kts | 80° |
| 2026-04-30 12:19 | 43.33372 | 132.23991 | 10630 ft | 348 kts | 82° |
| 2026-04-30 12:19 | 43.33720 | 132.27304 | 11143 ft | 354 kts | 82° |
| 2026-04-30 12:20 | 43.34079 | 132.30673 | 11714 ft | 358 kts | 82° |
| 2026-04-30 12:20 | 43.34463 | 132.34074 | 12266 ft | 361 kts | 81° |
| 2026-04-30 12:20 | 43.34871 | 132.37495 | 12793 ft | 365 kts | 81° |
| 2026-04-30 12:20 | 43.35487 | 132.40885 | 13275 ft | 368 kts | 68° |
| 2026-04-30 12:21 | 43.36741 | 132.43960 | 13744 ft | 372 kts | 52° |
| 2026-04-30 12:21 | 43.38566 | 132.46487 | 14197 ft | 375 kts | 37° |
| 2026-04-30 12:21 | 43.40825 | 132.48267 | 14636 ft | 377 kts | 21° |
| 2026-04-30 12:21 | 43.43344 | 132.49310 | 15059 ft | 380 kts | 14° |
| 2026-04-30 12:22 | 43.45904 | 132.50253 | 15465 ft | 382 kts | 14° |
| 2026-04-30 12:22 | 43.48485 | 132.51206 | 15855 ft | 385 kts | 15° |
| 2026-04-30 12:22 | 43.51080 | 132.52168 | 16232 ft | 387 kts | 15° |
| 2026-04-30 12:22 | 43.53688 | 132.53140 | 16590 ft | 390 kts | 15° |
| 2026-04-30 12:23 | 43.56202 | 132.54081 | 16920 ft | 392 kts | 15° |
| 2026-04-30 12:23 | 43.58957 | 132.55114 | 17269 ft | 395 kts | 15° |
| 2026-04-30 12:23 | 43.61604 | 132.56106 | 17589 ft | 397 kts | 15° |
| 2026-04-30 12:23 | 43.64291 | 132.57110 | 17903 ft | 399 kts | 15° |
| 2026-04-30 12:24 | 43.66982 | 132.58111 | 18200 ft | 401 kts | 15° |
| 2026-04-30 12:24 | 43.69681 | 132.59119 | 18487 ft | 403 kts | 15° |
| 2026-04-30 12:24 | 43.72393 | 132.60133 | 18765 ft | 405 kts | 15° |
| 2026-04-30 12:24 | 43.75086 | 132.61140 | 19033 ft | 407 kts | 15° |
| 2026-04-30 12:25 | 43.77822 | 132.62182 | 19291 ft | 409 kts | 17° |
| 2026-04-30 12:25 | 43.80450 | 132.63699 | 19535 ft | 411 kts | 28° |
| 2026-04-30 12:25 | 43.82838 | 132.65886 | 19780 ft | 413 kts | 39° |
| 2026-04-30 12:25 | 43.85000 | 132.68522 | 20018 ft | 415 kts | 42° |
| 2026-04-30 12:26 | 43.87158 | 132.71188 | 20246 ft | 416 kts | 41° |
| 2026-04-30 12:26 | 43.89325 | 132.73861 | 20464 ft | 418 kts | 41° |
| 2026-04-30 12:26 | 43.91503 | 132.76546 | 20675 ft | 419 kts | 41° |
| 2026-04-30 12:26 | 43.93688 | 132.79244 | 20879 ft | 421 kts | 41° |
| 2026-04-30 12:27 | 43.95880 | 132.81954 | 21077 ft | 422 kts | 41° |
| 2026-04-30 12:27 | 43.98078 | 132.84673 | 21271 ft | 424 kts | 41° |
| 2026-04-30 12:27 | 44.00282 | 132.87403 | 21458 ft | 425 kts | 41° |
| 2026-04-30 12:27 | 44.02492 | 132.90147 | 21639 ft | 427 kts | 41° |
| 2026-04-30 12:28 | 44.04706 | 132.92898 | 21811 ft | 428 kts | 41° |
| 2026-04-30 12:28 | 44.06926 | 132.95660 | 21972 ft | 429 kts | 41° |
| 2026-04-30 12:28 | 44.09161 | 132.98439 | 22126 ft | 430 kts | 41° |
| 2026-04-30 12:28 | 44.11395 | 133.01213 | 22271 ft | 431 kts | 41° |
| 2026-04-30 12:29 | 44.13635 | 133.03999 | 22410 ft | 432 kts | 41° |
| 2026-04-30 12:29 | 44.15878 | 133.06797 | 22541 ft | 434 kts | 42° |
| 2026-04-30 12:29 | 44.18125 | 133.09605 | 22666 ft | 434 kts | 42° |
| 2026-04-30 12:29 | 44.20400 | 133.12381 | 22788 ft | 435 kts | 38° |
| 2026-04-30 12:30 | 44.22832 | 133.14901 | 22915 ft | 436 kts | 36° |
| 2026-04-30 12:30 | 44.25274 | 133.17411 | 23040 ft | 436 kts | 36° |
| 2026-04-30 12:30 | 44.27719 | 133.19924 | 23165 ft | 437 kts | 36° |
| 2026-04-30 12:30 | 44.30165 | 133.22441 | 23290 ft | 437 kts | 36° |
| 2026-04-30 12:31 | 44.32615 | 133.24966 | 23415 ft | 438 kts | 36° |
| 2026-04-30 12:31 | 44.35059 | 133.27490 | 23540 ft | 438 kts | 36° |
| 2026-04-30 12:31 | 44.37509 | 133.30024 | 23664 ft | 438 kts | 36° |
| 2026-04-30 12:31 | 44.39961 | 133.32563 | 23789 ft | 438 kts | 36° |
| 2026-04-30 12:32 | 44.42411 | 133.35104 | 23914 ft | 438 kts | 36° |
| 2026-04-30 12:32 | 44.44860 | 133.37650 | 24038 ft | 438 kts | 37° |
| 2026-04-30 12:32 | 44.47307 | 133.40195 | 24163 ft | 438 kts | 37° |
| 2026-04-30 12:32 | 44.49717 | 133.42702 | 24286 ft | 438 kts | 36° |
| 2026-04-30 12:33 | 44.52160 | 133.45242 | 24410 ft | 437 kts | 36° |
| 2026-04-30 12:33 | 44.54601 | 133.47782 | 24535 ft | 437 kts | 37° |
| 2026-04-30 12:33 | 44.57037 | 133.50322 | 24659 ft | 436 kts | 37° |
| 2026-04-30 12:33 | 44.59468 | 133.52866 | 24784 ft | 436 kts | 37° |
| 2026-04-30 12:34 | 44.61895 | 133.55408 | 24908 ft | 435 kts | 37° |
| 2026-04-30 12:34 | 44.64325 | 133.57952 | 25033 ft | 435 kts | 37° |
| 2026-04-30 12:34 | 44.66745 | 133.60485 | 25158 ft | 434 kts | 37° |
| 2026-04-30 12:34 | 44.69167 | 133.63017 | 25283 ft | 433 kts | 37° |
| 2026-04-30 12:35 | 44.71583 | 133.65549 | 25407 ft | 433 kts | 37° |
| 2026-04-30 12:35 | 44.73990 | 133.68078 | 25532 ft | 432 kts | 37° |
| 2026-04-30 12:35 | 44.76395 | 133.70610 | 25657 ft | 431 kts | 37° |
| 2026-04-30 12:35 | 44.78792 | 133.73139 | 25781 ft | 431 kts | 37° |
| 2026-04-30 12:36 | 44.81189 | 133.75665 | 25906 ft | 430 kts | 37° |
| 2026-04-30 12:36 | 44.83583 | 133.78188 | 26031 ft | 430 kts | 37° |
| 2026-04-30 12:36 | 44.85981 | 133.80713 | 26156 ft | 429 kts | 37° |
| 2026-04-30 12:36 | 44.88370 | 133.83233 | 26280 ft | 429 kts | 37° |
| 2026-04-30 12:37 | 44.90753 | 133.85757 | 26405 ft | 428 kts | 37° |
| 2026-04-30 12:37 | 44.93142 | 133.88270 | 26530 ft | 428 kts | 36° |
| 2026-04-30 12:37 | 44.95555 | 133.90727 | 26655 ft | 427 kts | 35° |
| 2026-04-30 12:37 | 44.97989 | 133.93143 | 26780 ft | 427 kts | 34° |
| 2026-04-30 12:38 | 45.00430 | 133.95533 | 26904 ft | 427 kts | 34° |
| 2026-04-30 12:38 | 45.02870 | 133.97921 | 27030 ft | 426 kts | 34° |
| 2026-04-30 12:38 | 45.05304 | 134.00319 | 27155 ft | 426 kts | 35° |
| 2026-04-30 12:38 | 45.07697 | 134.02697 | 27278 ft | 426 kts | 35° |
| 2026-04-30 12:39 | 45.10118 | 134.05116 | 27403 ft | 426 kts | 35° |
| 2026-04-30 12:39 | 45.12534 | 134.07540 | 27528 ft | 425 kts | 35° |
| 2026-04-30 12:39 | 45.14946 | 134.09966 | 27653 ft | 425 kts | 35° |
| 2026-04-30 12:39 | 45.17354 | 134.12393 | 27778 ft | 425 kts | 35° |
| 2026-04-30 12:40 | 45.19765 | 134.14822 | 27903 ft | 425 kts | 35° |
| 2026-04-30 12:40 | 45.22173 | 134.17245 | 28028 ft | 424 kts | 35° |
| 2026-04-30 12:40 | 45.24584 | 134.19672 | 28154 ft | 424 kts | 35° |
| 2026-04-30 12:40 | 45.26989 | 134.22091 | 28278 ft | 424 kts | 35° |
| 2026-04-30 12:41 | 45.29392 | 134.24512 | 28403 ft | 424 kts | 35° |
| 2026-04-30 12:41 | 45.31797 | 134.26940 | 28529 ft | 423 kts | 35° |
| 2026-04-30 12:41 | 45.34198 | 134.29368 | 28654 ft | 423 kts | 35° |
| 2026-04-30 12:41 | 45.36595 | 134.31791 | 28779 ft | 423 kts | 35° |
| 2026-04-30 12:42 | 45.38992 | 134.34216 | 28904 ft | 423 kts | 35° |
| 2026-04-30 12:42 | 45.41388 | 134.36646 | 29029 ft | 422 kts | 35° |
| 2026-04-30 12:42 | 45.43776 | 134.39069 | 29153 ft | 422 kts | 35° |
| 2026-04-30 12:42 | 45.46165 | 134.41495 | 29278 ft | 422 kts | 35° |
| 2026-04-30 12:43 | 45.48555 | 134.43925 | 29403 ft | 421 kts | 35° |
| 2026-04-30 12:43 | 45.50935 | 134.46351 | 29528 ft | 421 kts | 36° |
| 2026-04-30 12:43 | 45.53314 | 134.48782 | 29653 ft | 420 kts | 36° |
| 2026-04-30 12:43 | 45.55692 | 134.51211 | 29778 ft | 420 kts | 36° |
| 2026-04-30 12:44 | 45.58066 | 134.53635 | 29903 ft | 420 kts | 36° |
| 2026-04-30 12:44 | 45.60410 | 134.56030 | 30026 ft | 419 kts | 36° |
| 2026-04-30 12:44 | 45.62780 | 134.58455 | 30151 ft | 419 kts | 36° |
| 2026-04-30 12:44 | 45.65142 | 134.60881 | 30276 ft | 418 kts | 36° |
| 2026-04-30 12:45 | 45.67504 | 134.63310 | 30401 ft | 418 kts | 36° |
| 2026-04-30 12:45 | 45.69864 | 134.65735 | 30526 ft | 417 kts | 36° |
| 2026-04-30 12:45 | 45.72217 | 134.68155 | 30651 ft | 416 kts | 36° |
| 2026-04-30 12:45 | 45.74570 | 134.70572 | 30776 ft | 416 kts | 36° |
| 2026-04-30 12:46 | 45.76916 | 134.72983 | 30901 ft | 415 kts | 36° |
| 2026-04-30 12:46 | 45.79260 | 134.75398 | 31026 ft | 414 kts | 36° |
| 2026-04-30 12:46 | 45.81594 | 134.77811 | 31151 ft | 413 kts | 36° |
| 2026-04-30 12:46 | 45.83923 | 134.80225 | 31276 ft | 413 kts | 36° |
| 2026-04-30 12:47 | 45.86248 | 134.82637 | 31401 ft | 412 kts | 36° |
| 2026-04-30 12:47 | 45.88543 | 134.85084 | 31525 ft | 411 kts | 39° |
| 2026-04-30 12:47 | 45.90634 | 134.87877 | 31650 ft | 410 kts | 47° |
| 2026-04-30 12:47 | 45.92446 | 134.91028 | 31776 ft | 409 kts | 53° |
| 2026-04-30 12:48 | 45.94151 | 134.94281 | 31900 ft | 408 kts | 53° |
| 2026-04-30 12:48 | 45.95867 | 134.97527 | 32025 ft | 407 kts | 53° |
| 2026-04-30 12:48 | 45.97559 | 135.00719 | 32147 ft | 406 kts | 53° |
| 2026-04-30 12:48 | 45.99270 | 135.03949 | 32273 ft | 405 kts | 53° |
| 2026-04-30 12:49 | 46.00969 | 135.07156 | 32397 ft | 404 kts | 53° |
| 2026-04-30 12:49 | 46.02663 | 135.10367 | 32521 ft | 403 kts | 53° |
| 2026-04-30 12:49 | 46.04354 | 135.13587 | 32647 ft | 402 kts | 53° |
| 2026-04-30 12:49 | 46.06035 | 135.16786 | 32771 ft | 400 kts | 53° |
| 2026-04-30 12:50 | 46.07713 | 135.19979 | 32896 ft | 399 kts | 53° |
| 2026-04-30 12:50 | 46.08845 | 135.22128 | 32980 ft | 398 kts | 53° |
| 2026-04-30 12:50 | 46.11042 | 135.26319 | 33144 ft | 396 kts | 53° |
| 2026-04-30 12:50 | 46.12696 | 135.29482 | 33269 ft | 395 kts | 53° |
| 2026-04-30 12:51 | 46.14347 | 135.32639 | 33394 ft | 393 kts | 53° |
| 2026-04-30 12:51 | 46.15989 | 135.35773 | 33518 ft | 391 kts | 53° |
| 2026-04-30 12:51 | 46.17631 | 135.38904 | 33643 ft | 390 kts | 53° |
| 2026-04-30 12:51 | 46.18709 | 135.40964 | 33725 ft | 389 kts | 53° |
| 2026-04-30 12:52 | 46.20331 | 135.44077 | 33850 ft | 387 kts | 53° |
| 2026-04-30 12:52 | 46.21940 | 135.47175 | 33974 ft | 385 kts | 53° |
| 2026-04-30 12:52 | 46.23539 | 135.50254 | 34098 ft | 383 kts | 53° |
| 2026-04-30 12:52 | 46.25131 | 135.53325 | 34223 ft | 380 kts | 53° |
| 2026-04-30 12:53 | 46.26713 | 135.56378 | 34347 ft | 378 kts | 53° |
| 2026-04-30 12:53 | 46.28285 | 135.59413 | 34471 ft | 376 kts | 53° |
| 2026-04-30 12:53 | 46.29845 | 135.62424 | 34596 ft | 373 kts | 53° |
| 2026-04-30 12:53 | 46.31396 | 135.65418 | 34719 ft | 370 kts | 53° |
| 2026-04-30 12:54 | 46.32932 | 135.68392 | 34844 ft | 367 kts | 53° |
| 2026-04-30 12:54 | 46.34451 | 135.71341 | 34967 ft | 364 kts | 53° |
| 2026-04-30 12:54 | 46.35956 | 135.74270 | 35092 ft | 361 kts | 53° |
| 2026-04-30 12:54 | 46.37471 | 135.77137 | 35215 ft | 357 kts | 52° |
| 2026-04-30 12:55 | 46.39003 | 135.79952 | 35339 ft | 353 kts | 51° |
| 2026-04-30 12:55 | 46.40508 | 135.82681 | 35461 ft | 349 kts | 51° |
| 2026-04-30 12:55 | 46.42037 | 135.85446 | 35585 ft | 345 kts | 51° |
| 2026-04-30 12:55 | 46.43523 | 135.88142 | 35709 ft | 340 kts | 51° |
| 2026-04-30 12:56 | 46.44981 | 135.90805 | 35832 ft | 334 kts | 52° |
| 2026-04-30 12:56 | 46.46388 | 135.93397 | 35947 ft | 329 kts | 52° |
| 2026-04-30 12:56 | 46.49197 | 135.98629 | 35778 ft | 332 kts | 52° |
| 2026-04-30 12:57 | 46.51994 | 136.03922 | 35843 ft | 324 kts | 53° |
| 2026-04-30 12:57 | 46.54708 | 136.09081 | 35908 ft | 316 kts | 52° |
| 2026-04-30 12:58 | 46.57416 | 136.14052 | 35670 ft | 319 kts | 51° |
| 2026-04-30 12:58 | 46.58821 | 136.16566 | 35494 ft | 321 kts | 50° |
| 2026-04-30 12:58 | 46.60230 | 136.19045 | 35578 ft | 314 kts | 50° |
| 2026-04-30 12:59 | 46.61606 | 136.21429 | 35787 ft | 301 kts | 52° |
| 2026-04-30 12:59 | 46.62874 | 136.23811 | 35777 ft | 287 kts | 50° |